Time;durP1;ratioP1;P1;durP2;ratioP2;P2;SDS_P1;SDS_P2;PMS_P1;PMS_P2;Temp;Humidity;BMP_temperature;BMP_pressure;BME280_temperature;BME280_humidity;BME280_pressure;Samples;Min_cycle;Max_cycle;Signal;HPM_P1;HPM_P2
2021/10/24 00:01:08;;;;;;;16.75;8.00;;;;;;;5.87;71.72;97843.77;1688766;81;21097;-81
2021/10/24 00:03:34;;;;;;;13.65;7.28;;;;;;;5.87;71.55;97851.97;1720312;80;21068;-81
2021/10/24 00:06:00;;;;;;;9.48;6.28;;;;;;;5.88;71.53;97850.56;1708580;82;21147;-80
2021/10/24 00:08:26;;;;;;;11.78;6.22;;;;;;;5.91;71.80;97858.09;1718598;81;21112;-80
2021/10/24 00:10:51;;;;;;;12.63;6.05;;;;;;;5.91;71.57;97852.11;1700048;81;21118;-81
2021/10/24 00:13:17;;;;;;;15.30;7.90;;;;;;;5.93;71.62;97857.50;1740372;80;21154;-81
2021/10/24 00:15:43;;;;;;;14.03;7.00;;;;;;;5.93;71.74;97859.27;1697578;83;21494;-80
2021/10/24 00:18:08;;;;;;;11.05;5.30;;;;;;;5.93;71.64;97856.69;1705700;81;21173;-81
2021/10/24 00:20:35;;;;;;;11.57;6.25;;;;;;;5.90;71.87;97863.38;1755299;80;21189;-80
2021/10/24 00:23:02;;;;;;;22.50;10.78;;;;;;;5.85;71.94;97862.38;1722742;81;21110;-80
2021/10/24 00:25:28;;;;;;;17.57;8.75;;;;;;;5.81;72.05;97854.52;1703176;83;23074;-81
2021/10/24 00:27:54;;;;;;;17.77;9.93;;;;;;;5.80;71.93;97858.52;1729481;80;21465;-80
2021/10/24 00:30:20;;;;;;;13.70;7.15;;;;;;;5.84;72.30;97862.02;1685063;83;21097;-81
2021/10/24 00:32:46;;;;;;;15.63;6.70;;;;;;;5.87;72.14;97864.40;1711512;82;21083;-81
2021/10/24 00:35:12;;;;;;;12.53;6.22;;;;;;;5.90;72.11;97860.33;1719492;81;21184;-81
2021/10/24 00:37:38;;;;;;;15.95;8.00;;;;;;;5.91;71.80;97856.80;1709378;82;21208;-81
2021/10/24 00:40:05;;;;;;;17.15;11.70;;;;;;;5.94;71.90;97863.48;1711462;81;21464;-80
2021/10/24 00:42:32;;;;;;;19.57;10.65;;;;;;;5.90;71.92;97859.03;1734922;81;21022;-80
2021/10/24 00:44:58;;;;;;;35.48;18.00;;;;;;;5.85;71.80;97861.09;1690485;81;21107;-81
2021/10/24 00:47:24;;;;;;;30.35;14.90;;;;;;;5.81;71.94;97864.84;1683953;83;21083;-81
2021/10/24 00:49:50;;;;;;;16.90;9.80;;;;;;;5.82;71.92;97861.33;1708600;81;21112;-80
2021/10/24 00:52:17;;;;;;;14.78;7.17;;;;;;;5.86;71.91;97864.05;1736082;80;22160;-80
2021/10/24 00:54:43;;;;;;;15.35;7.60;;;;;;;5.92;72.12;97859.73;1728026;81;21106;-81
2021/10/24 00:57:09;;;;;;;19.00;9.48;;;;;;;5.91;71.70;97863.25;1737038;80;21529;-80
2021/10/24 00:59:37;;;;;;;26.65;19.35;;;;;;;5.85;71.90;97859.80;1755566;80;21083;-81
2021/10/24 01:02:03;;;;;;;14.18;8.40;;;;;;;5.84;72.05;97862.49;1697095;82;21182;-80
2021/10/24 01:04:29;;;;;;;18.37;9.78;;;;;;;5.80;72.03;97861.91;1722272;81;21147;-80
2021/10/24 01:06:55;;;;;;;12.80;7.30;;;;;;;5.82;72.25;97865.66;1704996;81;21239;-82
2021/10/24 01:09:22;;;;;;;16.57;7.75;;;;;;;5.81;72.17;97862.27;1689054;82;21164;-80
2021/10/24 01:11:49;;;;;;;29.25;13.83;;;;;;;5.82;72.14;97874.22;1668402;83;21569;-80
2021/10/24 01:14:15;;;;;;;33.42;16.12;;;;;;;5.85;72.22;97867.53;1716707;81;21134;-81
2021/10/24 01:16:42;;;;;;;17.12;8.08;;;;;;;5.88;72.34;97869.91;1721400;81;21228;-80
2021/10/24 01:19:11;;;;;;;14.20;7.53;;;;;;;5.88;72.28;97866.04;1688955;81;21515;-80
2021/10/24 01:21:36;;;;;;;15.20;5.90;;;;;;;5.93;72.44;97869.11;1702681;82;21455;-80
2021/10/24 01:24:02;;;;;;;21.40;11.18;;;;;;;5.92;72.03;97871.81;1696713;83;21167;-80
2021/10/24 01:26:28;;;;;;;21.95;11.40;;;;;;;5.92;72.33;97863.60;1712995;82;21069;-81
2021/10/24 01:28:55;;;;;;;21.42;11.33;;;;;;;5.93;72.37;97868.30;1710611;82;21132;-80
2021/10/24 01:31:21;;;;;;;11.60;5.90;;;;;;;5.89;72.45;97868.97;1727293;81;21078;-80
2021/10/24 01:33:47;;;;;;;11.35;5.62;;;;;;;5.89;72.30;97870.73;1729571;81;21103;-81
2021/10/24 01:36:13;;;;;;;12.53;5.65;;;;;;;5.88;72.43;97876.36;1733757;80;21106;-81
2021/10/24 01:38:45;;;;;;;15.68;7.90;;;;;;;5.89;72.40;97876.70;1728971;80;21108;-81
2021/10/24 01:41:11;;;;;;;;;;;;;;;5.94;72.43;97871.22;1743479;80;21524;-80
2021/10/24 01:43:38;;;;;;;30.60;17.75;;;;;;;5.96;72.53;97869.34;1740181;80;20210;-80
2021/10/24 01:46:04;;;;;;;26.75;13.08;;;;;;;5.95;72.73;97871.10;1727780;80;21074;-80
2021/10/24 01:48:29;;;;;;;14.35;7.03;;;;;;;5.95;72.76;97880.13;1720615;81;21106;-81
2021/10/24 01:50:55;;;;;;;15.85;8.70;;;;;;;5.92;72.52;97882.95;1722224;80;21909;-80
2021/10/24 01:53:25;;;;;;;25.30;12.45;;;;;;;5.90;72.61;97882.25;1694456;82;21427;-80
2021/10/24 01:55:51;;;;;;;24.77;13.40;;;;;;;5.88;72.68;97881.52;1735559;80;21429;-80
2021/10/24 01:58:16;;;;;;;31.80;14.20;;;;;;;5.90;72.71;97886.59;1711391;81;21130;-80
2021/10/24 02:00:43;;;;;;;20.27;9.98;;;;;;;5.90;72.62;97875.80;1720821;81;21125;-80
2021/10/24 02:03:12;;;;;;;24.92;12.33;;;;;;;5.89;72.56;97881.87;1715554;81;21119;-81
2021/10/24 02:05:38;;;;;;;20.88;10.30;;;;;;;5.90;72.75;97884.01;1708415;81;21091;-80
2021/10/24 02:08:04;;;;;;;25.45;13.13;;;;;;;5.90;72.65;97884.01;1712967;81;21513;-80
2021/10/24 02:10:30;;;;;;;21.95;10.45;;;;;;;5.88;72.88;97884.09;1701571;81;21097;-81
2021/10/24 02:12:56;;;;;;;24.00;11.20;;;;;;;5.89;72.95;97874.59;1719001;81;21085;-80
2021/10/24 02:15:22;;;;;;;24.95;10.58;;;;;;;5.87;72.94;97884.22;1653360;84;21229;-81
2021/10/24 02:17:48;;;;;;;32.67;13.35;;;;;;;5.87;72.90;97877.77;1712133;82;21170;-81
2021/10/24 02:20:14;;;;;;;22.17;9.45;;;;;;;5.87;72.91;97877.30;1731122;81;21155;-80
2021/10/24 02:22:39;;;;;;;14.30;6.40;;;;;;;5.89;73.19;97880.58;1696090;82;21461;-81
2021/10/24 02:25:06;;;;;;;11.35;6.10;;;;;;;5.91;73.36;97884.36;1721795;81;21531;-80
2021/10/24 02:27:32;;;;;;;13.13;5.70;;;;;;;5.94;73.00;97885.41;1727247;81;21457;-80
2021/10/24 02:29:58;;;;;;;11.22;5.25;;;;;;;5.94;73.00;97882.36;1720933;82;21484;-80
2021/10/24 02:32:24;;;;;;;9.28;5.05;;;;;;;5.95;73.08;97881.89;1695744;82;21073;-80
2021/10/24 02:34:49;;;;;;;12.03;5.45;;;;;;;5.95;72.93;97881.42;1690487;82;21158;-81
2021/10/24 02:37:15;;;;;;;16.10;8.08;;;;;;;5.94;72.91;97877.20;1710816;80;21106;-80
2021/10/24 02:39:41;;;;;;;10.82;5.45;;;;;;;5.90;73.13;97889.98;1750845;80;21169;-81
2021/10/24 02:42:08;;;;;;;10.98;5.15;;;;;;;5.88;73.02;97889.25;1720354;81;21067;-81
2021/10/24 02:44:34;;;;;;;14.98;6.42;;;;;;;5.88;73.03;97891.84;1679483;83;21082;-81
2021/10/24 02:47:00;;;;;;;12.43;6.00;;;;;;;5.87;72.87;97886.33;1726281;81;21063;-81
2021/10/24 02:49:26;;;;;;;9.38;4.58;;;;;;;5.86;72.96;97885.97;1740281;80;21133;-81
2021/10/24 02:51:51;;;;;;;10.10;5.40;;;;;;;5.87;72.81;97884.22;1701828;83;21110;-80
2021/10/24 02:54:17;;;;;;;11.10;5.70;;;;;;;5.87;72.99;97887.61;1688492;81;21489;-81
2021/10/24 02:56:43;;;;;;;12.13;5.22;;;;;;;5.88;73.07;97884.09;1726632;80;21075;-80
2021/10/24 02:59:09;;;;;;;18.52;8.88;;;;;;;5.89;73.18;97893.48;1708334;82;21063;-80
2021/10/24 03:01:35;;;;;;;26.73;11.22;;;;;;;5.88;73.37;97893.59;1705854;82;21595;-80
2021/10/24 03:04:02;;;;;;;19.65;8.65;;;;;;;5.85;73.32;97894.62;1715178;80;21551;-81
2021/10/24 03:06:28;;;;;;;13.43;6.17;;;;;;;5.84;73.50;97895.56;1707208;83;21153;-81
2021/10/24 03:08:54;;;;;;;20.20;9.25;;;;;;;5.87;73.31;97899.69;1733349;81;21194;-81
2021/10/24 03:11:19;;;;;;;14.90;6.53;;;;;;;5.88;73.29;97894.41;1713444;80;21249;-81
2021/10/24 03:13:45;;;;;;;13.28;6.55;;;;;;;5.87;73.54;97898.41;1714429;81;21101;-80
2021/10/24 03:16:11;;;;;;;14.45;6.22;;;;;;;5.87;73.69;97891.95;1730757;81;21575;-81
2021/10/24 03:18:37;;;;;;;12.58;6.25;;;;;;;5.85;73.71;97887.35;1692962;82;21466;-80
2021/10/24 03:21:02;;;;;;;21.60;11.70;;;;;;;5.81;73.71;97889.34;1736887;80;21062;-80
2021/10/24 03:23:28;;;;;;;15.10;7.65;;;;;;;5.77;73.92;97895.68;1747752;80;21055;-81
2021/10/24 03:25:55;;;;;;;40.63;18.42;;;;;;;5.77;73.92;97893.10;1742080;80;21036;-80
2021/10/24 03:28:22;;;;;;;31.80;11.95;;;;;;;5.78;73.81;97893.92;1742789;80;21132;-80
2021/10/24 03:30:48;;;;;;;24.98;10.85;;;;;;;5.79;73.94;97890.41;1745006;80;21088;-81
2021/10/24 03:33:14;;;;;;;33.23;13.32;;;;;;;5.77;73.85;97887.13;1742645;81;21177;-81
2021/10/24 03:35:39;;;;;;;32.93;14.18;;;;;;;5.85;73.86;97895.91;1705563;82;21195;-81
2021/10/24 03:38:05;;;;;;;35.43;16.23;;;;;;;5.84;73.89;97896.84;1682656;82;21139;-81
2021/10/24 03:40:31;;;;;;;45.55;18.60;;;;;;;5.81;73.90;97905.30;1703457;82;21511;-81
2021/10/24 03:42:57;;;;;;;38.20;17.42;;;;;;;5.79;73.94;97905.87;1698770;81;21094;-81
2021/10/24 03:45:23;;;;;;;36.80;16.70;;;;;;;5.77;73.91;97896.15;1694031;80;21058;-80
2021/10/24 03:47:49;;;;;;;17.77;10.40;;;;;;;5.73;74.00;97904.59;1712465;81;21562;-80
2021/10/24 03:50:14;;;;;;;40.90;22.02;;;;;;;5.72;74.09;97900.37;1703483;81;21122;-81
2021/10/24 03:52:40;;;;;;;40.38;19.42;;;;;;;5.75;74.10;97901.42;1686764;82;21294;-82
2021/10/24 03:55:11;;;;;;;23.18;11.03;;;;;;;5.79;74.13;97909.75;1702248;82;21171;-80
2021/10/24 03:57:35;;;;;;;16.52;7.15;;;;;;;5.76;74.09;97913.38;1742499;81;22176;-81
2021/10/24 04:00:01;;;;;;;14.15;7.00;;;;;;;5.75;74.03;97921.23;1697062;82;21098;-80
2021/10/24 04:02:27;;;;;;;14.53;7.70;;;;;;;5.75;74.09;97927.22;1720304;82;21074;-80
2021/10/24 04:04:52;;;;;;;22.90;13.45;;;;;;;5.76;74.34;97935.30;1732968;80;21037;-80
2021/10/24 04:07:18;;;;;;;20.20;10.20;;;;;;;5.73;74.33;97931.20;1745908;80;21147;-81
2021/10/24 04:09:44;;;;;;;18.92;9.85;;;;;;;5.75;74.44;97925.10;1712931;81;21105;-81
2021/10/24 04:12:10;;;;;;;19.42;10.35;;;;;;;5.76;74.34;97931.44;1727477;80;21097;-80
2021/10/24 04:14:35;;;;;;;18.25;9.15;;;;;;;5.78;74.68;97925.69;1727630;80;22236;-80
2021/10/24 04:17:01;;;;;;;11.08;7.00;;;;;;;5.82;74.47;97921.13;1697352;82;21071;-80
2021/10/24 04:19:27;;;;;;;13.53;6.95;;;;;;;5.83;74.67;97928.73;1708035;81;22110;-80
2021/10/24 04:21:54;;;;;;;14.73;7.08;;;;;;;5.83;74.72;97923.58;1710703;80;21418;-80
2021/10/24 04:24:20;;;;;;;11.65;6.10;;;;;;;5.81;74.72;97926.75;1692742;83;21099;-80
2021/10/24 04:26:46;;;;;;;14.70;6.90;;;;;;;5.80;74.64;97928.16;1698525;83;21104;-80
2021/10/24 04:29:12;;;;;;;12.05;5.58;;;;;;;5.79;74.46;97930.38;1668203;85;21486;-80
2021/10/24 04:31:37;;;;;;;11.75;5.70;;;;;;;5.83;74.68;97933.08;1698402;81;21066;-80
2021/10/24 04:34:03;;;;;;;14.47;7.95;;;;;;;5.86;74.82;97929.01;1710234;82;21058;-80
2021/10/24 04:36:30;;;;;;;11.33;7.80;;;;;;;5.91;74.70;97922.59;1711705;81;21072;-81
2021/10/24 04:38:55;;;;;;;12.13;6.97;;;;;;;5.91;74.50;97932.09;1727633;80;21070;-80
2021/10/24 04:41:22;;;;;;;13.62;5.67;;;;;;;5.83;74.38;97930.50;1723845;81;21035;-80
2021/10/24 04:43:47;;;;;;;14.13;6.60;;;;;;;5.79;74.56;97927.80;1697660;83;21529;-80
2021/10/24 04:46:13;;;;;;;11.63;6.85;;;;;;;5.75;74.60;97934.95;1737098;80;21086;-81
2021/10/24 04:48:39;;;;;;;12.60;6.83;;;;;;;5.72;74.63;97931.31;1693577;81;21046;-80
2021/10/24 04:51:05;;;;;;;17.70;6.33;;;;;;;5.72;74.76;97930.03;1677821;83;21092;-80
2021/10/24 04:53:30;;;;;;;12.60;5.75;;;;;;;5.73;74.76;97933.78;1683175;82;21026;-81
2021/10/24 04:55:57;;;;;;;12.93;6.95;;;;;;;5.77;74.77;97942.11;1682892;82;21119;-81
2021/10/24 04:58:23;;;;;;;14.73;6.95;;;;;;;5.78;74.86;97941.64;1690109;82;21072;-80
2021/10/24 05:00:48;;;;;;;13.88;9.08;;;;;;;5.78;74.93;97942.46;1705383;81;21120;-80
2021/10/24 05:03:14;;;;;;;13.15;8.03;;;;;;;5.76;74.94;97938.35;1719899;81;21088;-80
2021/10/24 05:05:40;;;;;;;16.12;8.70;;;;;;;5.72;75.08;97944.21;1731385;80;21480;-80
2021/10/24 05:08:06;;;;;;;17.75;8.20;;;;;;;5.71;75.08;97947.27;1689396;82;21098;-80
2021/10/24 05:10:32;;;;;;;14.45;8.58;;;;;;;5.69;75.11;97943.98;1666120;84;21136;-80
2021/10/24 05:12:58;;;;;;;13.45;7.28;;;;;;;5.68;75.05;97949.22;1697446;81;21114;-80
2021/10/24 05:15:23;;;;;;;14.33;6.95;;;;;;;5.63;75.04;97953.44;1682788;83;21473;-80
2021/10/24 05:17:50;;;;;;;13.08;6.90;;;;;;;5.68;75.25;97954.38;1717234;81;21402;-80
2021/10/24 05:20:16;;;;;;;12.23;7.28;;;;;;;5.72;75.17;97955.82;1682750;81;21102;-80
2021/10/24 05:22:41;;;;;;;13.15;6.85;;;;;;;5.70;75.21;97948.66;1744609;80;21055;-80
2021/10/24 05:25:08;;;;;;;13.75;7.20;;;;;;;5.68;75.31;97956.48;1742690;80;21160;-80
2021/10/24 05:27:34;;;;;;;10.10;5.40;;;;;;;5.66;75.29;97956.25;1718908;82;21082;-80
2021/10/24 05:30:01;;;;;;;13.28;7.25;;;;;;;5.60;75.27;97957.53;1740021;81;21221;-80
2021/10/24 05:32:27;;;;;;;13.00;6.87;;;;;;;5.53;75.37;97957.64;1730519;81;21400;-80
2021/10/24 05:34:53;;;;;;;13.10;6.80;;;;;;;5.51;75.50;97954.79;1731170;81;21068;-80
2021/10/24 05:37:18;;;;;;;8.90;5.83;;;;;;;5.48;75.49;97957.59;1723099;80;21048;-80
2021/10/24 05:39:44;;;;;;;14.35;5.97;;;;;;;5.47;75.41;97970.13;1721712;80;21064;-80
2021/10/24 05:42:11;;;;;;;11.05;5.92;;;;;;;5.45;75.37;97967.67;1761640;80;22139;-80
2021/10/24 05:44:37;;;;;;;11.35;5.03;;;;;;;5.43;75.48;97974.69;1725793;81;21118;-80
2021/10/24 05:47:04;;;;;;;8.75;5.58;;;;;;;5.41;75.46;97979.14;1731988;81;21125;-81
2021/10/24 05:49:29;;;;;;;8.85;4.80;;;;;;;5.37;75.54;97984.17;1717330;81;21480;-80
2021/10/24 05:51:55;;;;;;;12.93;5.70;;;;;;;5.33;75.59;97986.59;1760246;80;21113;-81
2021/10/24 05:54:21;;;;;;;10.23;5.20;;;;;;;5.28;75.58;97992.08;1704242;83;21122;-80
2021/10/24 05:56:47;;;;;;;10.65;6.10;;;;;;;5.24;75.64;97986.79;1706149;82;21162;-80
2021/10/24 05:59:12;;;;;;;12.88;5.35;;;;;;;5.21;75.70;97993.46;1725906;80;21209;-80
2021/10/24 06:01:38;;;;;;;11.22;4.90;;;;;;;5.21;75.67;97999.08;1723623;82;21081;-81
2021/10/24 06:04:05;;;;;;;9.30;4.22;;;;;;;5.21;75.68;97999.08;1719262;82;21457;-80
2021/10/24 06:06:30;;;;;;;8.43;4.62;;;;;;;5.20;75.69;97999.52;1724987;81;21148;-80
2021/10/24 06:08:58;;;;;;;11.08;4.65;;;;;;;5.20;75.79;98000.80;1704545;82;21193;-80
2021/10/24 06:13:50;;;;;;;8.80;3.87;;;;;;;5.12;75.73;97999.25;1713236;82;21070;-81
2021/10/24 06:16:15;;;;;;;8.38;4.45;;;;;;;5.08;75.72;98002.98;1713462;82;21141;-80
2021/10/24 06:18:41;;;;;;;8.30;4.28;;;;;;;5.00;75.86;98005.25;1709292;82;21157;-80
2021/10/24 06:21:07;;;;;;;12.13;4.58;;;;;;;4.95;75.92;98003.47;1698241;81;21146;-80
2021/10/24 06:23:33;;;;;;;9.35;4.10;;;;;;;4.91;75.93;98011.06;1680176;84;21153;-80
2021/10/24 06:25:59;;;;;;;8.95;4.30;;;;;;;4.88;75.94;98012.11;1678904;84;21038;-80
2021/10/24 06:28:25;;;;;;;10.80;5.00;;;;;;;4.87;75.91;98013.00;1669510;83;21188;-80
2021/10/24 06:30:52;;;;;;;8.10;4.47;;;;;;;4.86;75.91;98016.98;1740430;81;21080;-80
2021/10/24 06:33:18;;;;;;;8.08;4.30;;;;;;;4.82;75.97;98017.20;1675695;82;21118;-81
2021/10/24 06:35:45;;;;;;;7.83;3.85;;;;;;;4.77;76.00;98014.13;1700303;82;21629;-80
2021/10/24 06:38:11;;;;;;;12.53;4.97;;;;;;;4.74;76.08;98028.97;1711465;81;21126;-80
2021/10/24 06:40:37;;;;;;;9.15;4.17;;;;;;;4.68;76.16;98026.80;1701903;81;21050;-80
2021/10/24 06:43:04;;;;;;;11.00;4.15;;;;;;;4.64;76.30;98036.48;1731690;80;21090;-80
2021/10/24 06:45:31;;;;;;;7.72;3.65;;;;;;;4.60;76.40;98035.52;1691503;83;21197;-80
2021/10/24 06:47:56;;;;;;;11.33;4.17;;;;;;;4.59;76.41;98032.59;1725005;80;21068;-80
2021/10/24 06:50:22;;;;;;;8.45;4.58;;;;;;;4.58;76.42;98034.34;1727888;81;21170;-80
2021/10/24 06:52:48;;;;;;;5.72;3.75;;;;;;;4.61;76.52;98029.44;1710898;81;21123;-80
2021/10/24 06:55:14;;;;;;;8.03;3.45;;;;;;;4.62;76.54;98041.38;1703161;82;21531;-80
2021/10/24 06:57:52;;;;;;;10.43;3.98;;;;;;;4.61;76.56;98038.45;1701489;82;21142;-80
2021/10/24 07:00:19;;;;;;;7.22;4.03;;;;;;;4.59;76.72;98045.00;1686040;82;21488;-80
2021/10/24 07:02:45;;;;;;;11.97;4.90;;;;;;;4.58;76.85;98045.92;1714539;83;21107;-80
2021/10/24 07:05:12;;;;;;;9.75;4.47;;;;;;;4.56;76.92;98041.81;1711997;81;21127;-81
2021/10/24 07:07:37;;;;;;;8.85;3.83;;;;;;;4.53;76.97;98050.53;1676912;83;21547;-81
2021/10/24 07:10:05;;;;;;;9.13;4.10;;;;;;;4.53;76.95;98050.53;1657804;84;21080;-80
2021/10/24 07:12:31;;;;;;;7.28;3.70;;;;;;;4.55;77.04;98048.68;1683637;82;21124;-80
2021/10/24 07:14:57;;;;;;;8.03;3.80;;;;;;;4.56;77.01;98043.09;1688619;82;21184;-81
2021/10/24 07:17:23;;;;;;;8.10;3.55;;;;;;;4.57;77.07;98040.41;1699037;83;21137;-80
2021/10/24 07:19:48;;;;;;;10.43;4.78;;;;;;;4.59;77.15;98041.59;1672116;83;21222;-80
2021/10/24 07:22:15;;;;;;;10.20;4.28;;;;;;;4.60;77.25;98044.06;1672361;82;21204;-80
2021/10/24 07:24:41;;;;;;;7.42;4.05;;;;;;;4.61;77.31;98043.60;1716257;82;21176;-80
2021/10/24 07:27:06;;;;;;;7.55;4.28;;;;;;;4.62;77.42;98047.36;1716572;82;21118;-80
2021/10/24 07:29:32;;;;;;;5.95;3.75;;;;;;;4.64;77.53;98051.11;1710094;82;21135;-80
2021/10/24 07:31:58;;;;;;;13.50;4.17;;;;;;;4.67;77.54;98055.58;1725149;82;21140;-80
2021/10/24 07:34:25;;;;;;;9.43;4.33;;;;;;;4.71;77.52;98054.44;1693498;81;21187;-80
2021/10/24 07:36:51;;;;;;;8.05;3.70;;;;;;;4.76;77.43;98054.97;1716601;82;21095;-80
2021/10/24 07:41:45;;;;;;;9.55;5.03;;;;;;;4.85;77.48;98056.08;1690130;81;21175;-80
2021/10/24 07:44:15;;;;;;;7.40;3.40;;;;;;;4.86;77.46;98060.30;1668380;84;21497;-81
2021/10/24 07:46:41;;;;;;;6.17;3.10;;;;;;;4.86;77.50;98055.15;1735657;80;21093;-80
2021/10/24 07:49:07;;;;;;;6.28;3.12;;;;;;;4.84;77.57;98055.72;1708334;81;21438;-80
2021/10/24 07:51:32;;;;;;;4.87;2.70;;;;;;;4.83;77.68;98057.94;1716215;81;21091;-80
2021/10/24 07:53:58;;;;;;;7.65;3.00;;;;;;;4.84;77.62;98060.88;1671672;83;21123;-80
2021/10/24 07:56:24;;;;;;;6.08;2.70;;;;;;;4.88;77.63;98062.33;1696746;83;21505;-80
2021/10/24 07:58:50;;;;;;;7.87;2.55;;;;;;;4.97;77.73;98056.53;1698673;83;21090;-80
2021/10/24 08:01:16;;;;;;;5.00;2.75;;;;;;;5.03;77.71;98057.84;1732842;80;21104;-80
2021/10/24 08:03:44;;;;;;;6.42;2.55;;;;;;;5.04;77.72;98054.34;1723955;80;21173;-80
2021/10/24 08:06:10;;;;;;;5.70;2.52;;;;;;;5.04;77.84;98051.77;1710895;82;21067;-80
2021/10/24 08:08:36;;;;;;;5.35;2.65;;;;;;;5.05;77.87;98058.13;1746855;80;21566;-80
2021/10/24 08:11:03;;;;;;;9.08;2.77;;;;;;;5.05;77.92;98058.59;1719593;79;21047;-80
2021/10/24 08:13:29;;;;;;;7.30;2.37;;;;;;;5.07;77.92;98060.59;1721360;80;21090;-80
2021/10/24 08:15:55;;;;;;;7.17;2.85;;;;;;;5.11;77.95;98059.45;1731920;81;21635;-80
2021/10/24 08:18:21;;;;;;;11.48;3.45;;;;;;;5.15;77.92;98062.16;1720314;81;21456;-80
2021/10/24 08:20:47;;;;;;;6.72;2.52;;;;;;;5.17;77.93;98066.73;1748547;80;21059;-80
2021/10/24 08:23:16;;;;;;;6.22;2.35;;;;;;;5.19;77.96;98066.16;1709401;82;21128;-80
2021/10/24 08:25:42;;;;;;;4.85;2.20;;;;;;;5.18;78.03;98069.67;1712904;81;21163;-80
2021/10/24 08:28:08;;;;;;;5.67;2.70;;;;;;;5.18;78.23;98070.14;1770565;79;21082;-80
2021/10/24 08:30:34;;;;;;;6.55;2.90;;;;;;;5.20;78.27;98065.70;1776228;79;21132;-80
2021/10/24 08:33:01;;;;;;;9.73;3.70;;;;;;;5.28;78.30;98071.98;1734963;79;21214;-80
2021/10/24 08:35:27;;;;;;;9.43;3.33;;;;;;;5.37;78.31;98070.05;1737437;80;21161;-80
2021/10/24 08:37:52;;;;;;;9.18;3.50;;;;;;;5.43;78.20;98073.95;1741002;79;21148;-80
2021/10/24 08:40:18;;;;;;;7.33;2.62;;;;;;;5.51;78.33;98060.50;1755947;80;21072;-80
2021/10/24 08:42:51;;;;;;;6.28;2.17;;;;;;;5.65;78.47;98081.80;1734718;80;21516;-80
2021/10/24 08:45:14;;;;;;;6.15;2.30;;;;;;;5.76;78.58;98083.61;1771536;78;21143;-80
2021/10/24 08:47:40;;;;;;;5.25;2.20;;;;;;;5.86;78.55;98082.03;1739886;81;21158;-81
2021/10/24 08:50:08;;;;;;;7.97;3.05;;;;;;;5.97;78.58;98082.09;1723239;81;21517;-81
2021/10/24 08:52:36;;;;;;;12.95;9.55;;;;;;;6.10;78.63;98074.75;1674642;83;21140;-80
2021/10/24 08:55:02;;;;;;;31.35;28.85;;;;;;;6.27;78.46;98079.03;1680868;81;21181;-80
2021/10/24 08:57:28;;;;;;;8.88;6.83;;;;;;;6.48;77.96;98077.89;1766701;80;21467;-81
2021/10/24 09:00:01;;;;;;;10.80;3.05;;;;;;;6.67;77.48;98079.09;1756068;80;21070;-80
2021/10/24 09:05:07;;;;;;;9.03;3.83;;;;;;;7.02;77.80;98078.55;1738346;80;21659;-80
2021/10/24 09:07:36;;;;;;;10.80;4.20;;;;;;;7.18;77.39;98079.47;1767952;79;21208;-80
2021/10/24 09:10:02;;;;;;;8.38;3.92;;;;;;;7.32;76.19;98082.25;1741708;80;21088;-80
2021/10/24 09:12:28;;;;;;;13.80;7.28;;;;;;;7.41;75.65;98088.84;1739913;80;21066;-81
2021/10/24 09:14:56;;;;;;;17.45;6.20;;;;;;;7.50;74.92;98088.13;1694591;81;21148;-80
2021/10/24 09:17:31;;;;;;;12.15;5.05;;;;;;;7.57;74.29;98094.10;1740241;78;21073;-80
2021/10/24 09:20:03;;;;;;;8.05;4.50;;;;;;;7.58;73.98;98091.86;1743579;80;22434;-80
2021/10/24 09:22:38;;;;;;;16.02;5.75;;;;;;;7.51;73.18;98092.36;1743291;80;21092;-80
2021/10/24 09:25:17;;;;;;;12.95;4.80;;;;;;;7.47;73.10;98092.22;1738647;80;21145;-81
2021/10/24 09:30:19;;;;;;;16.45;6.87;;;;;;;7.67;72.93;98093.73;1748681;80;21092;-80
2021/10/24 09:35:15;;;;;;;16.95;7.65;;;;;;;7.81;72.06;98095.58;1740673;80;20078;-80
2021/10/24 09:37:45;;;;;;;28.98;14.03;;;;;;;7.85;70.82;98100.03;1760726;79;21126;-80
2021/10/24 09:40:11;;;;;;;24.40;8.10;;;;;;;7.93;70.51;98098.11;1756072;80;21131;-80
2021/10/24 09:42:37;;;;;;;12.53;4.85;;;;;;;8.01;69.78;98090.56;1739265;81;21059;-81
2021/10/24 09:45:14;;;;;;;6.80;2.62;;;;;;;8.09;70.05;98096.75;1740611;80;21051;-80
2021/10/24 09:47:45;;;;;;;26.45;9.15;;;;;;;8.14;67.99;98098.98;1740515;80;21106;-81
2021/10/24 09:50:37;;;;;;;7.40;2.90;;;;;;;8.20;68.00;98102.83;1754133;80;21089;-81
2021/10/24 09:53:21;;;;;;;17.73;4.37;;;;;;;8.27;67.38;98107.38;1754483;79;21023;-81
2021/10/24 09:58:22;;;;;;;9.68;3.62;;;;;;;8.37;66.46;98100.54;1747662;79;21041;-80
2021/10/24 10:00:48;;;;;;;9.38;2.95;;;;;;;8.42;67.08;98088.50;1747983;79;21078;-80
2021/10/24 10:03:15;;;;;;;9.20;3.10;;;;;;;8.46;66.89;98083.88;1741953;80;21056;-81
2021/10/24 10:05:41;;;;;;;8.48;3.45;;;;;;;8.49;66.41;98086.23;1734994;80;21477;-81
2021/10/24 10:08:14;;;;;;;8.50;3.45;;;;;;;8.51;66.70;98082.57;1746132;79;21069;-81
2021/10/24 10:10:41;;;;;;;10.68;4.15;;;;;;;8.52;66.16;98085.98;1732181;81;21138;-81
2021/10/24 10:13:12;;;;;;;9.80;3.75;;;;;;;8.54;66.88;98084.08;1741271;81;21047;-81
2021/10/24 10:15:47;;;;;;;10.75;4.75;;;;;;;8.56;66.21;98077.00;1751494;79;21049;-80
2021/10/24 10:18:13;;;;;;;8.13;3.87;;;;;;;8.56;65.93;98089.48;1724845;80;21103;-81
2021/10/24 10:20:51;;;;;;;10.93;4.00;;;;;;;8.56;65.75;98089.95;1740653;80;21512;-81
2021/10/24 10:23:25;;;;;;;7.47;3.90;;;;;;;8.60;66.36;98083.56;1773413;79;21049;-81
2021/10/24 10:25:51;;;;;;;8.75;3.85;;;;;;;8.67;66.31;98088.59;1762654;80;22393;-81
2021/10/24 10:28:46;;;;;;;7.95;3.92;;;;;;;8.77;66.81;98092.52;1751446;79;21166;-81
2021/10/24 10:31:12;;;;;;;6.87;3.83;;;;;;;8.81;65.55;98092.62;1754431;79;21168;-80
2021/10/24 10:33:38;;;;;;;10.53;3.95;;;;;;;8.82;64.77;98085.20;1729413;79;21137;-81
2021/10/24 10:36:06;;;;;;;6.47;3.22;;;;;;;8.87;66.05;98085.63;1737776;80;21532;-81
2021/10/24 10:38:39;;;;;;;9.50;3.52;;;;;;;8.94;65.88;98081.55;1731812;81;21602;-81
2021/10/24 10:43:36;;;;;;;7.05;2.77;;;;;;;9.01;64.65;98081.39;1752048;80;21533;-81
2021/10/24 10:46:03;;;;;;;9.08;3.85;;;;;;;9.02;64.86;98088.22;1736757;81;21084;-81
2021/10/24 10:48:43;;;;;;;6.70;3.33;;;;;;;9.04;63.64;98085.02;1725454;81;21177;-81
2021/10/24 10:53:56;;;;;;;9.18;3.22;;;;;;;9.01;63.09;98074.43;1691721;82;21130;-81
2021/10/24 10:56:30;;;;;;;8.23;3.22;;;;;;;8.98;61.55;98067.39;1751845;79;21136;-81
2021/10/24 10:59:00;;;;;;;6.62;2.92;;;;;;;8.95;63.18;98065.89;1733572;80;21176;-81
2021/10/24 11:01:37;;;;;;;6.60;3.02;;;;;;;9.01;62.86;98060.17;1750637;80;21066;-81
2021/10/24 11:04:16;;;;;;;7.80;3.70;;;;;;;9.06;63.04;98052.47;1755656;79;21193;-81
2021/10/24 11:06:51;;;;;;;8.20;3.62;;;;;;;9.07;62.63;98049.74;1692795;80;21180;-81
2021/10/24 11:11:53;;;;;;;9.33;3.52;;;;;;;9.11;62.75;98033.44;1717605;80;21217;-81
2021/10/24 11:16:57;;;;;;;7.42;3.37;;;;;;;9.28;61.53;98037.54;1709693;81;21151;-81
2021/10/24 11:19:36;;;;;;;5.30;2.87;;;;;;;9.26;61.53;98036.00;1732008;80;21055;-81
2021/10/24 11:22:06;;;;;;;9.08;4.42;;;;;;;9.32;62.17;98040.68;1733007;80;21130;-81
2021/10/24 11:24:42;;;;;;;8.28;3.72;;;;;;;9.43;62.49;98041.02;1739746;81;21055;-81
2021/10/24 11:27:17;;;;;;;7.95;3.98;;;;;;;9.53;62.25;98036.20;1722094;81;21128;-81
2021/10/24 11:29:52;;;;;;;11.10;3.55;;;;;;;9.60;61.98;98032.13;1679379;83;21151;-81
2021/10/24 11:32:26;;;;;;;10.25;3.62;;;;;;;9.67;61.93;98030.28;1734586;80;21438;-81
2021/10/24 11:34:53;;;;;;;7.37;3.55;;;;;;;9.71;61.54;98026.45;1713255;82;21209;-80
2021/10/24 11:39:55;;;;;;;9.00;4.25;;;;;;;9.76;61.40;98032.05;1723752;80;21111;-81
2021/10/24 11:42:20;;;;;;;7.65;3.77;;;;;;;9.75;61.20;98021.32;1671980;83;21131;-81
2021/10/24 11:44:46;;;;;;;6.80;3.02;;;;;;;9.79;61.56;98024.83;1636731;83;21109;-81
2021/10/24 11:47:14;;;;;;;10.45;3.40;;;;;;;9.87;61.37;98018.46;1669330;84;21091;-81
2021/10/24 11:49:46;;;;;;;7.45;2.85;;;;;;;9.88;59.72;98015.38;1739943;79;21061;-81
2021/10/24 11:52:23;;;;;;;8.30;3.65;;;;;;;9.83;60.32;98015.80;1720851;81;21090;-81
2021/10/24 11:55:10;;;;;;;8.78;3.77;;;;;;;9.86;60.36;98016.00;1731698;80;21508;-81
2021/10/24 12:00:20;;;;;;;7.90;3.77;;;;;;;9.87;59.33;98013.75;1742075;80;21082;-81
2021/10/24 12:02:58;;;;;;;8.90;4.33;;;;;;;9.84;60.41;98006.23;1686298;83;21172;-81
2021/10/24 12:05:32;;;;;;;10.72;4.08;;;;;;;9.89;60.78;98002.73;1714298;82;21180;-81
2021/10/24 12:07:59;;;;;;;5.15;3.25;;;;;;;10.00;60.82;98005.20;1703626;81;21142;-81